createdAt,value
2018-08-06T00:00:22.748Z,18.48
2018-08-06T00:02:51.217Z,18.49
2018-08-06T00:05:19.773Z,18.47
2018-08-06T00:07:48.393Z,18.36
2018-08-06T00:10:19.332Z,18.31
2018-08-06T00:12:47.788Z,18.03
2018-08-06T00:15:16.585Z,17.90
2018-08-06T00:17:45.445Z,17.84
2018-08-06T00:20:14.712Z,17.60
2018-08-06T00:22:43.409Z,17.49
2018-08-06T00:25:13.219Z,17.60
2018-08-06T00:27:42.454Z,17.56
2018-08-06T00:30:13.385Z,17.60
2018-08-06T00:32:42.730Z,17.70
2018-08-06T00:35:11.868Z,17.69
2018-08-06T00:37:40.599Z,17.73
2018-08-06T00:40:15.367Z,17.75
2018-08-06T00:42:44.534Z,17.75
2018-08-06T00:45:16.694Z,17.72
2018-08-06T00:47:45.701Z,17.67
2018-08-06T00:50:14.279Z,17.72
2018-08-06T00:52:42.754Z,17.72
2018-08-06T00:55:13.494Z,17.64
2018-08-06T00:57:42.340Z,17.63
2018-08-06T01:00:13.629Z,17.62
2018-08-06T01:02:42.106Z,17.52
2018-08-06T01:05:11.941Z,17.47
2018-08-06T01:07:40.941Z,17.46
2018-08-06T01:10:11.357Z,17.39
2018-08-06T01:12:40.486Z,17.28
2018-08-06T01:15:10.390Z,17.32
2018-08-06T01:17:38.807Z,17.31
2018-08-06T01:20:09.296Z,17.26
2018-08-06T01:22:37.777Z,17.27
2018-08-06T01:25:06.556Z,17.28
2018-08-06T01:27:35.566Z,17.21
2018-08-06T01:30:04.386Z,17.19
2018-08-06T01:32:32.820Z,17.09
2018-08-06T01:35:01.309Z,17.08
2018-08-06T01:37:29.708Z,16.84
2018-08-06T01:39:58.104Z,16.89
2018-08-06T01:42:26.589Z,16.81
2018-08-06T01:44:55.057Z,16.82
2018-08-06T01:47:23.606Z,16.72
2018-08-06T01:49:52.125Z,16.73
2018-08-06T01:52:20.572Z,16.78
2018-08-06T01:54:49.001Z,16.65
2018-08-06T01:57:17.529Z,16.75
2018-08-06T01:59:45.994Z,16.67
2018-08-06T02:02:14.581Z,16.70
2018-08-06T02:04:43.006Z,16.60
2018-08-06T02:07:11.445Z,16.43
2018-08-06T02:09:39.852Z,16.51
2018-08-06T02:12:08.669Z,16.44
2018-08-06T02:14:37.185Z,16.39
2018-08-06T02:17:05.830Z,16.42
2018-08-06T02:19:34.307Z,16.48
2018-08-06T02:22:02.809Z,16.49
2018-08-06T02:24:31.308Z,16.52
2018-08-06T02:26:59.798Z,16.44
2018-08-06T02:29:28.305Z,16.33
2018-08-06T02:31:56.898Z,16.32
2018-08-06T02:34:25.353Z,16.49
2018-08-06T02:36:53.817Z,16.47
2018-08-06T02:39:22.269Z,16.49
2018-08-06T02:41:50.687Z,16.34
2018-08-06T02:44:19.217Z,16.37
2018-08-06T02:46:47.704Z,16.43
2018-08-06T02:49:16.169Z,16.46
2018-08-06T02:51:44.664Z,16.39
2018-08-06T02:54:13.065Z,16.41
2018-08-06T02:56:41.570Z,16.35
2018-08-06T02:59:10.031Z,16.37
2018-08-06T03:01:38.495Z,16.26
2018-08-06T03:04:06.966Z,15.96
2018-08-06T03:06:35.526Z,15.80
2018-08-06T03:09:05.642Z,15.63
2018-08-06T03:11:34.130Z,15.58
2018-08-06T03:14:02.582Z,15.54
2018-08-06T03:16:31.051Z,15.53
2018-08-06T03:18:59.491Z,15.43
2018-08-06T03:21:27.950Z,15.42
2018-08-06T03:23:56.368Z,15.31
2018-08-06T03:26:24.885Z,15.22
2018-08-06T03:28:53.329Z,15.35
2018-08-06T03:31:21.816Z,15.38
2018-08-06T03:33:50.225Z,15.32
2018-08-06T03:36:18.663Z,15.40
2018-08-06T03:38:47.077Z,15.42
2018-08-06T03:41:15.569Z,15.38
2018-08-06T03:43:43.984Z,15.43
2018-08-06T03:46:12.386Z,15.45
2018-08-06T03:48:40.925Z,15.41
2018-08-06T03:51:09.394Z,15.39
2018-08-06T03:53:37.845Z,15.38
2018-08-06T03:56:06.283Z,15.29
2018-08-06T03:58:34.742Z,15.24
2018-08-06T04:01:03.217Z,15.26
2018-08-06T04:03:31.723Z,15.10
2018-08-06T04:06:00.141Z,15.06
2018-08-06T04:08:28.617Z,14.97
2018-08-06T04:10:57.040Z,14.87
2018-08-06T04:13:25.650Z,14.87
2018-08-06T04:15:54.002Z,14.98
2018-08-06T04:18:22.427Z,15.04
2018-08-06T04:20:50.840Z,15.09
2018-08-06T04:23:19.300Z,15.23
2018-08-06T04:25:47.719Z,15.34
2018-08-06T04:28:16.174Z,15.46
2018-08-06T04:30:44.581Z,15.45
2018-08-06T04:33:13.087Z,15.39
2018-08-06T04:35:41.470Z,15.34
2018-08-06T04:38:09.891Z,15.37
2018-08-06T04:40:38.310Z,15.46
2018-08-06T04:43:06.793Z,15.48
2018-08-06T04:45:35.209Z,15.54
2018-08-06T04:48:03.714Z,15.60
2018-08-06T04:50:32.166Z,15.50
2018-08-06T04:53:00.682Z,15.66
2018-08-06T04:55:29.202Z,15.92
2018-08-06T04:57:57.683Z,16.17
2018-08-06T05:00:26.127Z,16.41
2018-08-06T05:02:54.564Z,16.54
2018-08-06T05:05:23.043Z,16.73
2018-08-06T05:07:51.578Z,16.97
2018-08-06T05:10:19.993Z,17.15
2018-08-06T05:12:48.515Z,17.14
2018-08-06T05:15:17.260Z,16.96
2018-08-06T05:17:45.733Z,16.90
2018-08-06T05:20:14.160Z,16.81
2018-08-06T05:22:42.596Z,16.74
2018-08-06T05:25:11.106Z,16.91
2018-08-06T05:27:39.636Z,16.90
2018-08-06T05:30:10.283Z,17.00
2018-08-06T05:32:38.771Z,17.38
2018-08-06T05:35:07.561Z,17.54
2018-08-06T05:37:36.039Z,17.66
2018-08-06T05:40:05.137Z,17.83
2018-08-06T05:42:33.672Z,17.67
2018-08-06T05:45:02.117Z,17.93
2018-08-06T05:47:30.580Z,18.37
2018-08-06T05:49:59.145Z,18.66
2018-08-06T05:52:27.643Z,19.03
2018-08-06T05:54:56.685Z,19.18
2018-08-06T05:57:25.123Z,19.25
2018-08-06T05:59:53.588Z,19.52
2018-08-06T06:02:24.481Z,19.59
2018-08-06T06:04:52.937Z,19.51
2018-08-06T06:07:21.757Z,19.49
2018-08-06T06:09:50.559Z,19.61
2018-08-06T06:12:19.544Z,19.77
2018-08-06T06:14:48.087Z,19.97
2018-08-06T06:17:16.510Z,20.11
2018-08-06T06:19:44.973Z,20.22
2018-08-06T06:22:13.442Z,20.30
2018-08-06T06:24:41.965Z,20.40
2018-08-06T06:27:10.360Z,20.52
2018-08-06T06:29:39.158Z,20.71
2018-08-06T06:32:08.292Z,20.90
2018-08-06T06:34:37.570Z,21.10
2018-08-06T06:37:06.053Z,21.31
2018-08-06T06:39:34.481Z,21.46
2018-08-06T06:42:02.938Z,21.66
2018-08-06T06:44:31.366Z,22.04
2018-08-06T06:46:59.772Z,22.36
2018-08-06T06:49:28.238Z,22.63
2018-08-06T06:51:56.693Z,22.97
2018-08-06T06:54:25.314Z,23.00
2018-08-06T06:56:53.637Z,23.22
2018-08-06T06:59:22.148Z,23.42
2018-08-06T07:01:50.535Z,23.62
2018-08-06T07:04:18.976Z,23.85
2018-08-06T07:06:47.397Z,24.03
2018-08-06T07:09:15.803Z,24.18
2018-08-06T07:11:44.267Z,24.27
2018-08-06T07:14:12.758Z,24.45
2018-08-06T07:16:41.176Z,24.64
2018-08-06T07:19:09.662Z,24.77
2018-08-06T07:21:38.261Z,24.89
2018-08-06T07:24:06.868Z,25.09
2018-08-06T07:26:35.541Z,25.26
2018-08-06T07:29:04.035Z,25.32
2018-08-06T07:31:32.451Z,25.45
2018-08-06T07:34:00.915Z,25.59
2018-08-06T07:36:29.372Z,25.71
2018-08-06T07:38:57.872Z,25.83
2018-08-06T07:41:26.321Z,25.82
2018-08-06T07:43:54.762Z,26.01
2018-08-06T07:46:23.237Z,26.02
2018-08-06T07:48:52.020Z,26.31
2018-08-06T07:51:20.475Z,26.26
2018-08-06T07:53:48.942Z,26.26
2018-08-06T07:56:17.388Z,26.70
2018-08-06T07:58:45.838Z,26.46
2018-08-06T08:01:14.273Z,26.63
2018-08-06T08:03:42.792Z,26.70
2018-08-06T08:06:11.272Z,26.58
2018-08-06T08:08:39.721Z,26.71
2018-08-06T08:11:08.201Z,27.04
2018-08-06T08:13:36.600Z,27.08
2018-08-06T08:16:05.549Z,27.18
2018-08-06T08:18:34.000Z,27.33
2018-08-06T08:21:02.470Z,27.38
2018-08-06T08:23:30.928Z,27.31
2018-08-06T08:25:59.428Z,27.58
2018-08-06T08:28:27.926Z,27.73
2018-08-06T08:30:56.429Z,27.81
2018-08-06T08:33:24.943Z,27.93
2018-08-06T08:35:53.478Z,28.15
2018-08-06T08:38:21.908Z,28.23
2018-08-06T08:40:50.431Z,28.42
2018-08-06T08:43:18.958Z,28.63
2018-08-06T08:45:47.407Z,28.74
2018-08-06T08:48:16.334Z,28.77
2018-08-06T08:50:44.836Z,28.92
2018-08-06T08:53:13.285Z,28.91
2018-08-06T08:55:41.764Z,29.06
2018-08-06T08:58:10.185Z,29.17
2018-08-06T09:00:38.680Z,29.31
2018-08-06T09:03:07.404Z,29.25
2018-08-06T09:05:35.902Z,29.25
2018-08-06T09:08:04.433Z,29.45
2018-08-06T09:10:32.865Z,29.87
2018-08-06T09:13:01.470Z,29.69
2018-08-06T09:15:30.053Z,29.90
2018-08-06T09:17:58.484Z,29.64
2018-08-06T09:20:27.154Z,29.74
2018-08-06T09:22:55.570Z,30.11
2018-08-06T09:25:23.976Z,30.26
2018-08-06T09:27:52.749Z,30.06
2018-08-06T09:30:22.481Z,29.93
2018-08-06T09:32:52.499Z,29.90
2018-08-06T09:35:21.253Z,30.03
2018-08-06T09:37:49.782Z,30.23
2018-08-06T09:40:19.503Z,29.92
2018-08-06T09:42:48.641Z,29.90
2018-08-06T09:45:18.307Z,30.06
2018-08-06T09:47:48.113Z,30.10
2018-08-06T09:50:17.245Z,30.27
2018-08-06T09:52:46.825Z,30.31
2018-08-06T09:55:18.533Z,30.52
2018-08-06T09:57:47.561Z,30.13
2018-08-06T10:00:22.288Z,30.23
2018-08-06T10:02:51.617Z,30.19
2018-08-06T10:05:21.422Z,29.82
2018-08-06T10:07:49.913Z,30.02
2018-08-06T10:10:18.418Z,30.08
2018-08-06T10:12:47.230Z,30.03
2018-08-06T10:15:16.177Z,30.29
2018-08-06T10:17:45.557Z,30.56
2018-08-06T10:20:17.198Z,30.15
2018-08-06T10:22:45.651Z,30.15
2018-08-06T10:25:15.040Z,30.09
2018-08-06T10:27:44.336Z,30.12
2018-08-06T10:30:15.304Z,30.39
2018-08-06T10:32:44.027Z,30.34
2018-08-06T10:35:13.432Z,30.39
2018-08-06T10:37:41.946Z,30.60
2018-08-06T10:40:13.912Z,30.43
2018-08-06T10:42:43.109Z,30.30
2018-08-06T10:45:14.616Z,30.00
2018-08-06T10:47:43.200Z,30.72
2018-08-06T10:50:12.345Z,30.86
2018-08-06T10:52:40.860Z,31.04
2018-08-06T10:55:10.133Z,30.83
2018-08-06T10:57:39.565Z,31.07
2018-08-06T11:00:21.504Z,31.38
2018-08-06T11:02:50.287Z,31.07
2018-08-06T11:05:19.242Z,31.21
2018-08-06T11:07:47.738Z,31.52
2018-08-06T11:10:19.409Z,31.65
2018-08-06T11:12:48.018Z,31.69
2018-08-06T11:15:19.269Z,31.39
2018-08-06T11:17:48.329Z,31.63
2018-08-06T11:20:17.658Z,31.77
2018-08-06T11:22:46.270Z,31.90
2018-08-06T11:25:17.330Z,32.06
2018-08-06T11:27:45.869Z,32.23
2018-08-06T11:30:16.091Z,32.15
2018-08-06T11:32:45.017Z,32.00
2018-08-06T11:35:14.189Z,32.26
2018-08-06T11:37:43.042Z,32.57
2018-08-06T11:40:12.654Z,31.99
2018-08-06T11:42:41.989Z,31.77
2018-08-06T11:45:12.726Z,31.60
2018-08-06T11:47:41.202Z,31.89
2018-08-06T11:50:15.548Z,32.47
2018-08-06T11:52:44.081Z,32.20
2018-08-06T11:55:12.581Z,32.56
2018-08-06T11:57:41.138Z,32.29
2018-08-06T12:00:14.450Z,32.29
2018-08-06T12:02:42.849Z,32.71
2018-08-06T12:05:11.353Z,32.91
2018-08-06T12:07:39.914Z,33.30
2018-08-06T12:10:11.640Z,33.41
2018-08-06T12:12:40.073Z,33.34
2018-08-06T12:15:09.369Z,32.70
2018-08-06T12:17:38.421Z,32.44
2018-08-06T12:20:09.507Z,32.36
2018-08-06T12:22:38.210Z,32.40
2018-08-06T12:25:07.974Z,33.14
2018-08-06T12:27:36.478Z,33.45
2018-08-06T12:30:07.328Z,33.50
2018-08-06T12:32:35.752Z,33.62
2018-08-06T12:35:04.529Z,33.56
2018-08-06T12:37:33.017Z,33.51
2018-08-06T12:40:01.380Z,33.39
2018-08-06T12:42:29.894Z,33.34
2018-08-06T12:44:58.291Z,33.47
2018-08-06T12:47:26.722Z,33.54
2018-08-06T12:49:55.143Z,34.11
2018-08-06T12:52:23.568Z,34.28
2018-08-06T12:54:52.042Z,34.60
2018-08-06T12:57:27.762Z,35.20
2018-08-06T13:00:00.274Z,35.63
2018-08-06T13:02:28.989Z,34.85
2018-08-06T13:04:57.614Z,34.88
2018-08-06T13:07:26.077Z,35.15
2018-08-06T13:09:55.221Z,35.66
2018-08-06T13:12:23.721Z,35.65
2018-08-06T13:14:52.189Z,34.62
2018-08-06T13:17:33.542Z,35.06
2018-08-06T13:20:03.073Z,37.06
2018-08-06T13:22:36.809Z,38.38
2018-08-06T13:25:07.127Z,39.91
2018-08-06T13:27:35.581Z,40.56
2018-08-06T13:30:05.018Z,40.78
2018-08-06T13:32:33.473Z,41.01
2018-08-06T13:35:01.947Z,41.74
2018-08-06T13:37:30.449Z,42.73
2018-08-06T13:39:58.957Z,43.29
2018-08-06T13:42:27.450Z,42.71
2018-08-06T13:44:55.923Z,43.44
2018-08-06T13:47:24.427Z,43.01
2018-08-06T13:49:52.852Z,43.45
2018-08-06T13:52:21.430Z,43.04
2018-08-06T13:54:49.848Z,42.90
2018-08-06T13:57:18.317Z,42.96
2018-08-06T13:59:46.784Z,43.65
2018-08-06T14:02:15.570Z,44.46
2018-08-06T14:04:44.013Z,44.82
2018-08-06T14:07:12.418Z,44.71
2018-08-06T14:09:40.878Z,43.39
2018-08-06T14:12:09.323Z,43.23
2018-08-06T14:14:37.745Z,43.59
2018-08-06T14:17:06.729Z,43.79
2018-08-06T14:19:35.184Z,44.43
2018-08-06T14:22:09.374Z,44.88
2018-08-06T14:24:37.906Z,43.34
2018-08-06T14:27:06.374Z,43.60
2018-08-06T14:29:34.809Z,44.25
2018-08-06T14:32:03.517Z,44.75
2018-08-06T14:34:31.977Z,45.26
2018-08-06T14:37:00.555Z,45.63
2018-08-06T14:39:29.051Z,45.54
2018-08-06T14:41:57.538Z,45.80
2018-08-06T14:44:26.020Z,44.55
2018-08-06T14:46:54.445Z,43.64
2018-08-06T14:49:22.893Z,45.01
2018-08-06T14:51:51.546Z,44.66
2018-08-06T14:54:19.965Z,44.08
2018-08-06T14:56:48.362Z,45.32
2018-08-06T14:59:16.833Z,44.26
2018-08-06T15:01:45.284Z,44.91
2018-08-06T15:04:13.719Z,44.31
2018-08-06T15:06:42.184Z,45.15
2018-08-06T15:09:14.540Z,45.31
2018-08-06T15:11:43.468Z,46.73
2018-08-06T15:14:11.933Z,45.72
2018-08-06T15:16:40.497Z,45.22
2018-08-06T15:19:09.044Z,44.49
2018-08-06T15:21:37.567Z,43.38
2018-08-06T15:24:06.065Z,43.44
2018-08-06T15:26:35.526Z,43.53
2018-08-06T15:29:04.530Z,44.00
2018-08-06T15:31:33.045Z,44.92
2018-08-06T15:34:01.525Z,45.24
2018-08-06T15:36:29.973Z,44.71
2018-08-06T15:38:58.435Z,44.66
2018-08-06T15:41:26.900Z,43.72
2018-08-06T15:43:55.415Z,44.27
2018-08-06T15:46:23.942Z,43.82
2018-08-06T15:48:52.390Z,44.32
2018-08-06T15:51:20.874Z,43.96
2018-08-06T15:53:49.337Z,43.02
2018-08-06T15:56:17.778Z,44.02
2018-08-06T15:58:46.313Z,43.66
2018-08-06T16:01:14.761Z,43.64
2018-08-06T16:03:43.450Z,43.14
2018-08-06T16:06:11.842Z,42.90
2018-08-06T16:08:40.320Z,42.85
2018-08-06T16:11:08.786Z,42.30
2018-08-06T16:13:37.291Z,42.35
2018-08-06T16:16:05.797Z,42.69
2018-08-06T16:18:34.418Z,42.95
2018-08-06T16:21:03.049Z,43.63
2018-08-06T16:23:31.505Z,43.27
2018-08-06T16:26:00.027Z,42.53
2018-08-06T16:28:28.549Z,42.55
2018-08-06T16:30:57.035Z,42.53
2018-08-06T16:33:25.499Z,43.58
2018-08-06T16:35:54.234Z,42.85
2018-08-06T16:38:22.989Z,42.39
2018-08-06T16:40:51.547Z,42.10
2018-08-06T16:43:20.081Z,42.10
2018-08-06T16:45:48.614Z,42.55
2018-08-06T16:48:17.397Z,42.05
2018-08-06T16:50:46.019Z,41.05
2018-08-06T16:53:14.466Z,41.23
2018-08-06T16:55:43.245Z,40.39
2018-08-06T16:58:12.233Z,40.29
2018-08-06T17:00:40.744Z,39.81
2018-08-06T17:03:09.173Z,39.71
2018-08-06T17:05:37.642Z,39.50
2018-08-06T17:08:06.173Z,39.65
2018-08-06T17:10:34.786Z,39.61
2018-08-06T17:13:03.499Z,38.38
2018-08-06T17:15:31.995Z,36.45
2018-08-06T17:18:00.477Z,35.44
2018-08-06T17:20:28.925Z,34.80
2018-08-06T17:22:57.407Z,34.62
2018-08-06T17:25:25.927Z,33.89
2018-08-06T17:27:54.433Z,33.86
2018-08-06T17:30:23.123Z,34.11
2018-08-06T17:32:51.621Z,34.03
2018-08-06T17:35:20.129Z,33.93
2018-08-06T17:37:49.203Z,33.77
2018-08-06T17:40:18.937Z,33.68
2018-08-06T17:42:47.607Z,33.54
2018-08-06T17:45:19.140Z,33.37
2018-08-06T17:47:47.623Z,33.22
2018-08-06T17:50:18.230Z,33.05
2018-08-06T17:52:48.301Z,33.10
2018-08-06T17:55:17.986Z,32.96
2018-08-06T17:57:48.032Z,33.08
2018-08-06T18:00:17.029Z,32.78
2018-08-06T18:02:45.582Z,32.69
2018-08-06T18:05:15.274Z,32.72
2018-08-06T18:07:44.156Z,32.69
2018-08-06T18:10:13.959Z,32.53
2018-08-06T18:12:43.090Z,32.43
2018-08-06T18:15:11.622Z,33.28
2018-08-06T18:17:40.093Z,34.80
2018-08-06T18:20:12.619Z,35.80
2018-08-06T18:22:41.081Z,36.32
2018-08-06T18:25:11.425Z,36.67
2018-08-06T18:27:39.884Z,35.96
2018-08-06T18:30:12.341Z,34.69
2018-08-06T18:32:40.806Z,33.56
2018-08-06T18:35:10.588Z,32.93
2018-08-06T18:37:46.785Z,32.49
2018-08-06T18:40:16.341Z,32.12
2018-08-06T18:42:44.795Z,31.84
2018-08-06T18:45:15.509Z,31.73
2018-08-06T18:47:44.814Z,31.61
2018-08-06T18:50:14.222Z,31.63
2018-08-06T18:52:43.754Z,31.65
2018-08-06T18:55:13.169Z,31.63
2018-08-06T18:57:42.046Z,31.65
2018-08-06T19:00:20.453Z,31.45
2018-08-06T19:02:49.000Z,31.27
2018-08-06T19:05:18.033Z,31.14
2018-08-06T19:07:46.551Z,31.00
2018-08-06T19:10:15.096Z,30.80
2018-08-06T19:12:48.875Z,30.64
2018-08-06T19:15:17.412Z,30.51
2018-08-06T19:17:51.109Z,30.46
2018-08-06T19:20:19.589Z,30.43
2018-08-06T19:22:48.025Z,30.24
2018-08-06T19:25:21.825Z,30.07
2018-08-06T19:27:50.304Z,29.98
2018-08-06T19:30:18.763Z,29.90
2018-08-06T19:32:47.465Z,29.88
2018-08-06T19:35:15.941Z,29.80
2018-08-06T19:37:44.769Z,29.74
2018-08-06T19:40:13.296Z,29.63
2018-08-06T19:45:35.715Z,29.42
2018-08-06T19:48:04.246Z,29.28
2018-08-06T19:50:42.485Z,29.10
2018-08-06T19:53:10.968Z,28.99
2018-08-06T19:55:44.809Z,28.86
2018-08-06T19:58:13.338Z,28.63
2018-08-06T20:00:41.805Z,28.50
2018-08-06T20:03:10.352Z,28.36
2018-08-06T20:05:38.821Z,28.39
2018-08-06T20:08:07.320Z,28.24
2018-08-06T20:10:35.870Z,28.06
2018-08-06T20:13:04.277Z,27.90
2018-08-06T20:15:32.708Z,27.89
2018-08-06T20:18:01.225Z,27.89
2018-08-06T20:20:29.630Z,27.91
2018-08-06T20:23:00.159Z,27.80
2018-08-06T20:25:28.592Z,27.76
2018-08-06T20:27:57.078Z,27.67
2018-08-06T20:30:25.522Z,27.65
2018-08-06T20:32:54.021Z,27.94
2018-08-06T20:35:22.603Z,27.28
2018-08-06T20:37:51.081Z,27.00
2018-08-06T20:40:19.542Z,26.79
2018-08-06T20:42:48.058Z,26.50
2018-08-06T20:45:18.491Z,26.34
2018-08-06T20:47:47.016Z,26.25
2018-08-06T20:50:17.157Z,26.26
2018-08-06T20:52:46.498Z,26.24
2018-08-06T20:55:14.959Z,26.22
2018-08-06T20:57:43.669Z,26.28
2018-08-06T21:00:19.434Z,26.45
2018-08-06T21:02:57.415Z,26.38
2018-08-06T21:05:25.869Z,26.24
2018-08-06T21:07:54.374Z,26.16
2018-08-06T21:10:22.877Z,25.93
2018-08-06T21:12:51.393Z,25.82
2018-08-06T21:15:19.906Z,25.67
2018-08-06T21:17:48.374Z,25.61
2018-08-06T21:20:18.259Z,25.59
2018-08-06T21:22:48.837Z,25.54
2018-08-06T21:25:17.475Z,25.40
2018-08-06T21:27:47.253Z,25.41
2018-08-06T21:30:18.808Z,25.41
2018-08-06T21:32:50.494Z,25.45
2018-08-06T21:35:19.813Z,25.39
2018-08-06T21:37:49.762Z,25.44
2018-08-06T21:40:19.043Z,25.29
2018-08-06T21:42:47.948Z,25.07
2018-08-06T21:45:16.695Z,24.91
2018-08-06T21:47:45.416Z,24.66
2018-08-06T21:50:14.781Z,24.48
2018-08-06T21:52:47.079Z,24.20
2018-08-06T21:55:15.561Z,23.96
2018-08-06T21:57:44.047Z,23.93
2018-08-06T22:00:22.242Z,24.03
2018-08-06T22:02:50.733Z,24.42
2018-08-06T22:05:19.216Z,24.55
2018-08-06T22:07:47.726Z,24.40
2018-08-06T22:10:16.129Z,24.30
2018-08-06T22:12:44.557Z,24.19
2018-08-06T22:15:13.058Z,23.95
2018-08-06T22:17:41.489Z,23.85
2018-08-06T22:20:09.966Z,23.62
2018-08-06T22:22:38.417Z,23.37
2018-08-06T22:25:06.977Z,23.07
2018-08-06T22:27:35.465Z,22.93
2018-08-06T22:30:04.632Z,22.62
2018-08-06T22:32:33.111Z,22.66
2018-08-06T22:35:01.526Z,22.65
2018-08-06T22:37:29.942Z,22.53
2018-08-06T22:40:04.759Z,22.55
2018-08-06T22:45:32.631Z,22.44
2018-08-06T22:48:05.341Z,22.38
2018-08-06T22:51:03.114Z,22.29
2018-08-06T22:54:09.667Z,22.31
2018-08-06T22:56:45.244Z,22.26
2018-08-06T22:59:15.755Z,22.33
2018-08-06T23:01:44.269Z,22.31
2018-08-06T23:04:13.578Z,22.30
2018-08-06T23:06:42.019Z,22.30
2018-08-06T23:09:12.114Z,22.26
2018-08-06T23:11:41.214Z,22.12
2018-08-06T23:14:09.996Z,22.07
2018-08-06T23:16:38.749Z,22.03
2018-08-06T23:19:07.189Z,21.97
2018-08-06T23:21:35.717Z,21.89
2018-08-06T23:24:04.813Z,21.69
2018-08-06T23:26:33.269Z,21.65
2018-08-06T23:29:01.864Z,21.60
2018-08-06T23:31:30.340Z,21.58
2018-08-06T23:33:58.840Z,21.57
2018-08-06T23:36:27.334Z,21.59
2018-08-06T23:38:55.802Z,21.45
2018-08-06T23:41:24.245Z,21.54
2018-08-06T23:43:52.735Z,21.53
2018-08-06T23:46:21.217Z,21.47
2018-08-06T23:48:50.003Z,21.41
2018-08-06T23:51:18.477Z,21.45
2018-08-06T23:53:46.923Z,21.40
2018-08-06T23:56:15.341Z,21.37
2018-08-06T23:58:43.885Z,21.48
